sensor_id;sensor_type;location;lat;lon;timestamp;pressure;altitude;pressure_sealevel;temperature;humidity
57232;BME280;43488;46.934;8.276;2023-05-11T00:00:43;96396.50;;;11.83;100.00
57232;BME280;43488;46.934;8.276;2023-05-11T00:03:10;96394.31;;;11.80;100.00
57232;BME280;43488;46.934;8.276;2023-05-11T00:05:38;96396.53;;;11.76;100.00
57232;BME280;43488;46.934;8.276;2023-05-11T00:08:05;96388.63;;;11.76;100.00
57232;BME280;43488;46.934;8.276;2023-05-11T00:10:33;96389.03;;;11.80;100.00
57232;BME280;43488;46.934;8.276;2023-05-11T00:13:00;96393.88;;;11.83;100.00
57232;BME280;43488;46.934;8.276;2023-05-11T00:15:28;96384.13;;;11.83;100.00
57232;BME280;43488;46.934;8.276;2023-05-11T00:17:55;96385.97;;;11.83;100.00
57232;BME280;43488;46.934;8.276;2023-05-11T00:20:23;96384.13;;;11.83;100.00
57232;BME280;43488;46.934;8.276;2023-05-11T00:22:50;96378.63;;;11.85;100.00
57232;BME280;43488;46.934;8.276;2023-05-11T00:25:23;96376.66;;;11.80;100.00
57232;BME280;43488;46.934;8.276;2023-05-11T00:27:50;96366.72;;;11.76;100.00
57232;BME280;43488;46.934;8.276;2023-05-11T00:30:18;96377.63;;;11.79;100.00
57232;BME280;43488;46.934;8.276;2023-05-11T00:32:45;96375.63;;;11.81;100.00
57232;BME280;43488;46.934;8.276;2023-05-11T00:35:13;96376.66;;;11.80;100.00
57232;BME280;43488;46.934;8.276;2023-05-11T00:37:41;96376.81;;;11.79;100.00
57232;BME280;43488;46.934;8.276;2023-05-11T00:40:08;96370.34;;;11.81;100.00
57232;BME280;43488;46.934;8.276;2023-05-11T00:42:37;96371.97;;;11.82;100.00
57232;BME280;43488;46.934;8.276;2023-05-11T00:45:05;96368.09;;;11.85;100.00
57232;BME280;43488;46.934;8.276;2023-05-11T00:47:33;96364.63;;;11.84;100.00
57232;BME280;43488;46.934;8.276;2023-05-11T00:50:01;96361.19;;;11.84;100.00
57232;BME280;43488;46.934;8.276;2023-05-11T00:52:29;96363.50;;;11.74;100.00
57232;BME280;43488;46.934;8.276;2023-05-11T00:54:56;96366.59;;;11.71;100.00
57232;BME280;43488;46.934;8.276;2023-05-11T00:57:24;96355.66;;;11.67;100.00
57232;BME280;43488;46.934;8.276;2023-05-11T00:59:52;96359.31;;;11.66;100.00
57232;BME280;43488;46.934;8.276;2023-05-11T01:02:19;96363.94;;;11.71;100.00
57232;BME280;43488;46.934;8.276;2023-05-11T01:04:47;96364.53;;;11.73;100.00
57232;BME280;43488;46.934;8.276;2023-05-11T01:07:24;96368.31;;;11.77;100.00
57232;BME280;43488;46.934;8.276;2023-05-11T01:10:25;96369.13;;;11.77;100.00
57232;BME280;43488;46.934;8.276;2023-05-11T01:13:33;96374.41;;;11.77;100.00
57232;BME280;43488;46.934;8.276;2023-05-11T01:16:22;96374.03;;;11.80;100.00
57232;BME280;43488;46.934;8.276;2023-05-11T01:19:46;96365.69;;;11.77;100.00
57232;BME280;43488;46.934;8.276;2023-05-11T01:25:31;96370.16;;;11.76;100.00
57232;BME280;43488;46.934;8.276;2023-05-11T01:28:25;96374.19;;;11.79;100.00
57232;BME280;43488;46.934;8.276;2023-05-11T01:31:08;96372.44;;;11.73;100.00
57232;BME280;43488;46.934;8.276;2023-05-11T01:34:10;96374.91;;;11.67;100.00
57232;BME280;43488;46.934;8.276;2023-05-11T01:36:51;96376.28;;;11.70;100.00
57232;BME280;43488;46.934;8.276;2023-05-11T01:39:37;96366.78;;;11.69;100.00
57232;BME280;43488;46.934;8.276;2023-05-11T01:42:09;96376.97;;;11.65;100.00
57232;BME280;43488;46.934;8.276;2023-05-11T01:44:41;96378.56;;;11.66;100.00
57232;BME280;43488;46.934;8.276;2023-05-11T01:47:14;96374.91;;;11.67;100.00
57232;BME280;43488;46.934;8.276;2023-05-11T01:49:42;96374.91;;;11.67;100.00
57232;BME280;43488;46.934;8.276;2023-05-11T01:52:10;96369.63;;;11.67;100.00
57232;BME280;43488;46.934;8.276;2023-05-11T01:54:40;96374.53;;;11.64;100.00
57232;BME280;43488;46.934;8.276;2023-05-11T01:57:08;96372.72;;;11.64;100.00
57232;BME280;43488;46.934;8.276;2023-05-11T01:59:38;96377.75;;;11.66;100.00
57232;BME280;43488;46.934;8.276;2023-05-11T02:02:07;96375.56;;;11.63;100.00
57232;BME280;43488;46.934;8.276;2023-05-11T02:04:36;96372.31;;;11.61;100.00
57232;BME280;43488;46.934;8.276;2023-05-11T02:07:07;96374.53;;;11.64;100.00
57232;BME280;43488;46.934;8.276;2023-05-11T02:09:36;96384.06;;;11.65;100.00
57232;BME280;43488;46.934;8.276;2023-05-11T02:12:06;96377.00;;;11.59;100.00
57232;BME280;43488;46.934;8.276;2023-05-11T02:14:34;96379.06;;;11.57;100.00
57232;BME280;43488;46.934;8.276;2023-05-11T02:17:05;96374.81;;;11.56;100.00
57232;BME280;43488;46.934;8.276;2023-05-11T02:19:34;96378.47;;;11.55;100.00
57232;BME280;43488;46.934;8.276;2023-05-11T02:22:04;96375.84;;;11.55;100.00
57232;BME280;43488;46.934;8.276;2023-05-11T02:24:32;96370.41;;;11.50;100.00
57232;BME280;43488;46.934;8.276;2023-05-11T02:27:01;96369.59;;;11.49;100.00
57232;BME280;43488;46.934;8.276;2023-05-11T02:29:28;96367.97;;;11.48;100.00
57232;BME280;43488;46.934;8.276;2023-05-11T02:32:05;96369.22;;;11.46;100.00
57232;BME280;43488;46.934;8.276;2023-05-11T02:34:40;96366.19;;;11.42;100.00
57232;BME280;43488;46.934;8.276;2023-05-11T02:37:19;96364.97;;;11.45;100.00
57232;BME280;43488;46.934;8.276;2023-05-11T02:39:57;96363.50;;;11.49;100.00
57232;BME280;43488;46.934;8.276;2023-05-11T02:42:29;96368.16;;;11.53;100.00
57232;BME280;43488;46.934;8.276;2023-05-11T02:45:01;96366.09;;;11.55;100.00
57232;BME280;43488;46.934;8.276;2023-05-11T02:47:35;96371.38;;;11.55;100.00
57232;BME280;43488;46.934;8.276;2023-05-11T02:50:06;96363.47;;;11.55;100.00
57232;BME280;43488;46.934;8.276;2023-05-11T02:52:36;96353.94;;;11.54;100.00
57232;BME280;43488;46.934;8.276;2023-05-11T02:55:08;96356.00;;;11.52;100.00
57232;BME280;43488;46.934;8.276;2023-05-11T02:57:37;96362.28;;;11.51;100.00
57232;BME280;43488;46.934;8.276;2023-05-11T03:00:06;96351.72;;;11.51;100.00
57232;BME280;43488;46.934;8.276;2023-05-11T03:02:34;96349.09;;;11.51;100.00
57232;BME280;43488;46.934;8.276;2023-05-11T03:05:01;96344.44;;;11.53;100.00
57232;BME280;43488;46.934;8.276;2023-05-11T03:07:33;96354.16;;;11.53;100.00
57232;BME280;43488;46.934;8.276;2023-05-11T03:10:02;96348.50;;;11.49;100.00
57232;BME280;43488;46.934;8.276;2023-05-11T03:12:30;96341.47;;;11.43;100.00
57232;BME280;43488;46.934;8.276;2023-05-11T03:15:00;96346.34;;;11.39;100.00
57232;BME280;43488;46.934;8.276;2023-05-11T03:17:29;96347.16;;;11.40;100.00
57232;BME280;43488;46.934;8.276;2023-05-11T03:19:58;96349.00;;;11.39;100.00
57232;BME280;43488;46.934;8.276;2023-05-11T03:22:29;96349.59;;;11.42;100.00
57232;BME280;43488;46.934;8.276;2023-05-11T03:25:04;96337.00;;;11.44;100.00
57232;BME280;43488;46.934;8.276;2023-05-11T03:27:32;96343.13;;;11.37;100.00
57232;BME280;43488;46.934;8.276;2023-05-11T03:30:05;96339.84;;;11.42;100.00
57232;BME280;43488;46.934;8.276;2023-05-11T03:32:35;96344.69;;;11.45;100.00
57232;BME280;43488;46.934;8.276;2023-05-11T03:35:03;96334.16;;;11.45;100.00
57232;BME280;43488;46.934;8.276;2023-05-11T03:37:30;96342.88;;;11.46;100.00
57232;BME280;43488;46.934;8.276;2023-05-11T03:40:02;96342.66;;;11.47;100.00
57232;BME280;43488;46.934;8.276;2023-05-11T03:42:32;96334.16;;;11.45;100.00
57232;BME280;43488;46.934;8.276;2023-05-11T03:45:02;96338.63;;;11.45;100.00
57232;BME280;43488;46.934;8.276;2023-05-11T03:47:32;96327.28;;;11.44;100.00
57232;BME280;43488;46.934;8.276;2023-05-11T03:50:01;96343.50;;;11.41;100.00
57232;BME280;43488;46.934;8.276;2023-05-11T03:52:30;96332.16;;;11.40;100.00
57232;BME280;43488;46.934;8.276;2023-05-11T03:54:58;96332.59;;;11.37;100.00
57232;BME280;43488;46.934;8.276;2023-05-11T03:57:26;96338.94;;;11.30;100.00
57232;BME280;43488;46.934;8.276;2023-05-11T03:59:53;96334.47;;;11.30;100.00
57232;BME280;43488;46.934;8.276;2023-05-11T04:02:20;96338.94;;;11.30;100.00
57232;BME280;43488;46.934;8.276;2023-05-11T04:04:50;96336.31;;;11.30;100.00
57232;BME280;43488;46.934;8.276;2023-05-11T04:07:21;96337.56;;;11.27;100.00
57232;BME280;43488;46.934;8.276;2023-05-11T04:09:48;96340.41;;;11.26;100.00
57232;BME280;43488;46.934;8.276;2023-05-11T04:12:16;96340.78;;;11.29;100.00
57232;BME280;43488;46.934;8.276;2023-05-11T04:14:44;96341.56;;;11.30;100.00
57232;BME280;43488;46.934;8.276;2023-05-11T04:17:11;96334.91;;;11.27;100.00
57232;BME280;43488;46.934;8.276;2023-05-11T04:19:39;96334.91;;;11.27;100.00
57232;BME280;43488;46.934;8.276;2023-05-11T04:22:07;96342.03;;;11.27;100.00
57232;BME280;43488;46.934;8.276;2023-05-11T04:24:34;96333.31;;;11.26;100.00
57232;BME280;43488;46.934;8.276;2023-05-11T04:27:02;96334.34;;;11.25;100.00
57232;BME280;43488;46.934;8.276;2023-05-11T04:29:30;96330.22;;;11.29;100.00
57232;BME280;43488;46.934;8.276;2023-05-11T04:31:58;96336.53;;;11.28;100.00
57232;BME280;43488;46.934;8.276;2023-05-11T04:34:27;96346.25;;;11.28;100.00
57232;BME280;43488;46.934;8.276;2023-05-11T04:36:55;96343.41;;;11.29;100.00
57232;BME280;43488;46.934;8.276;2023-05-11T04:39:22;96341.34;;;11.31;100.00
57232;BME280;43488;46.934;8.276;2023-05-11T04:41:49;96348.69;;;11.29;100.00
57232;BME280;43488;46.934;8.276;2023-05-11T04:44:16;96349.66;;;11.35;100.00
57232;BME280;43488;46.934;8.276;2023-05-11T04:46:44;96354.94;;;11.35;100.00
57232;BME280;43488;46.934;8.276;2023-05-11T04:49:11;96342.78;;;11.34;100.00
57232;BME280;43488;46.934;8.276;2023-05-11T04:51:38;96345.56;;;11.39;100.00
57232;BME280;43488;46.934;8.276;2023-05-11T04:54:06;96353.47;;;11.39;100.00
57232;BME280;43488;46.934;8.276;2023-05-11T04:56:34;96347.75;;;11.42;100.00
57232;BME280;43488;46.934;8.276;2023-05-11T04:59:06;96353.03;;;11.42;100.00
57232;BME280;43488;46.934;8.276;2023-05-11T05:01:34;96348.78;;;11.41;100.00
57232;BME280;43488;46.934;8.276;2023-05-11T05:04:03;96349.59;;;11.42;100.00
57232;BME280;43488;46.934;8.276;2023-05-11T05:06:30;96352.66;;;11.38;100.00
57232;BME280;43488;46.934;8.276;2023-05-11T05:08:58;96350.47;;;11.35;100.00
57232;BME280;43488;46.934;8.276;2023-05-11T05:11:25;96348.84;;;11.34;100.00
57232;BME280;43488;46.934;8.276;2023-05-11T05:13:53;96343.13;;;11.37;100.00
57232;BME280;43488;46.934;8.276;2023-05-11T05:16:21;96349.59;;;11.42;100.00
57232;BME280;43488;46.934;8.276;2023-05-11T05:18:48;96350.38;;;11.42;100.00
57232;BME280;43488;46.934;8.276;2023-05-11T05:21:15;96342.28;;;11.44;100.00
57232;BME280;43488;46.934;8.276;2023-05-11T05:23:43;96347.75;;;11.42;100.00
57232;BME280;43488;46.934;8.276;2023-05-11T05:26:11;96354.72;;;11.36;100.00
57232;BME280;43488;46.934;8.276;2023-05-11T05:28:38;96348.19;;;11.39;100.00
57232;BME280;43488;46.934;8.276;2023-05-11T05:31:05;96356.38;;;11.31;100.00
57232;BME280;43488;46.934;8.276;2023-05-11T05:33:33;96360.69;;;11.25;100.00
57232;BME280;43488;46.934;8.276;2023-05-11T05:36:01;96356.94;;;11.33;100.00
57232;BME280;43488;46.934;8.276;2023-05-11T05:38:28;96353.47;;;11.39;100.00
57232;BME280;43488;46.934;8.276;2023-05-11T05:40:55;96354.50;;;11.38;100.00
57232;BME280;43488;46.934;8.276;2023-05-11T05:43:22;96347.97;;;11.40;100.00
57232;BME280;43488;46.934;8.276;2023-05-11T05:45:50;96351.41;;;11.41;100.00
57232;BME280;43488;46.934;8.276;2023-05-11T05:48:17;96352.03;;;11.43;100.00
57232;BME280;43488;46.934;8.276;2023-05-11T05:50:45;96349.97;;;11.45;100.00
57232;BME280;43488;46.934;8.276;2023-05-11T05:53:14;96354.81;;;11.48;100.00
57232;BME280;43488;46.934;8.276;2023-05-11T05:55:41;96355.16;;;11.52;100.00
57232;BME280;43488;46.934;8.276;2023-05-11T05:58:09;96348.28;;;11.51;100.00
57232;BME280;43488;46.934;8.276;2023-05-11T06:00:36;96351.09;;;11.56;100.00
57232;BME280;43488;46.934;8.276;2023-05-11T06:03:04;96348.41;;;11.62;100.00
57232;BME280;43488;46.934;8.276;2023-05-11T06:05:31;96357.53;;;11.60;100.00
57232;BME280;43488;46.934;8.276;2023-05-11T06:07:59;96353.94;;;11.54;100.00
57232;BME280;43488;46.934;8.276;2023-05-11T06:10:26;96347.66;;;11.55;100.00
57232;BME280;43488;46.934;8.276;2023-05-11T06:12:54;96345.06;;;11.49;100.00
57232;BME280;43488;46.934;8.276;2023-05-11T06:15:22;96349.53;;;11.48;100.00
57232;BME280;43488;46.934;8.276;2023-05-11T06:17:49;96356.38;;;11.56;100.00
57232;BME280;43488;46.934;8.276;2023-05-11T06:20:17;96357.16;;;11.56;100.00
57232;BME280;43488;46.934;8.276;2023-05-11T06:22:44;96350.50;;;11.54;100.00
57232;BME280;43488;46.934;8.276;2023-05-11T06:25:11;96351.72;;;11.51;100.00
57232;BME280;43488;46.934;8.276;2023-05-11T06:27:38;96347.47;;;11.50;100.00
57232;BME280;43488;46.934;8.276;2023-05-11T06:30:06;96349.69;;;11.53;100.00
57232;BME280;43488;46.934;8.276;2023-05-11T06:32:34;96356.13;;;11.57;100.00
57232;BME280;43488;46.934;8.276;2023-05-11T06:35:01;96344.34;;;11.60;100.00
57232;BME280;43488;46.934;8.276;2023-05-11T06:37:29;96348.94;;;11.71;100.00
57232;BME280;43488;46.934;8.276;2023-05-11T06:39:57;96347.72;;;11.67;100.00
57232;BME280;43488;46.934;8.276;2023-05-11T06:42:25;96343.03;;;11.69;100.00
57232;BME280;43488;46.934;8.276;2023-05-11T06:44:53;96342.00;;;11.70;100.00
57232;BME280;43488;46.934;8.276;2023-05-11T06:47:20;96342.22;;;11.68;100.00
57232;BME280;43488;46.934;8.276;2023-05-11T06:49:47;96339.53;;;11.75;100.00
57232;BME280;43488;46.934;8.276;2023-05-11T06:52:14;96332.13;;;11.65;100.00
57232;BME280;43488;46.934;8.276;2023-05-11T06:54:42;96334.72;;;11.72;100.00
57232;BME280;43488;46.934;8.276;2023-05-11T06:57:09;96343.03;;;11.69;100.00
57232;BME280;43488;46.934;8.276;2023-05-11T06:59:37;96346.34;;;11.64;100.00
57232;BME280;43488;46.934;8.276;2023-05-11T07:02:05;96340.13;;;11.77;100.00
57232;BME280;43488;46.934;8.276;2023-05-11T07:04:32;96344.72;;;11.63;100.00
57232;BME280;43488;46.934;8.276;2023-05-11T07:07:00;96354.09;;;11.59;100.00
57232;BME280;43488;46.934;8.276;2023-05-11T07:09:27;96358.41;;;11.54;100.00
57232;BME280;43488;46.934;8.276;2023-05-11T07:11:55;96364.41;;;11.61;100.00
57232;BME280;43488;46.934;8.276;2023-05-11T07:14:22;96367.94;;;11.55;100.00
57232;BME280;43488;46.934;8.276;2023-05-11T07:16:49;96363.81;;;11.59;100.00
57232;BME280;43488;46.934;8.276;2023-05-11T07:19:18;96369.63;;;11.67;100.00
57232;BME280;43488;46.934;8.276;2023-05-11T07:21:45;96365.69;;;11.77;100.00
57232;BME280;43488;46.934;8.276;2023-05-11T07:24:13;96364.28;;;11.81;100.00
57232;BME280;43488;46.934;8.276;2023-05-11T07:26:40;96364.63;;;11.84;100.00
57232;BME280;43488;46.934;8.276;2023-05-11T07:29:07;96364.19;;;11.87;100.00
57232;BME280;43488;46.934;8.276;2023-05-11T07:31:35;96359.94;;;11.86;100.00
57232;BME280;43488;46.934;8.276;2023-05-11T07:34:02;96369.56;;;11.81;100.00
57232;BME280;43488;46.934;8.276;2023-05-11T07:36:31;96368.59;;;11.68;100.00
57232;BME280;43488;46.934;8.276;2023-05-11T07:38:59;96368.78;;;11.74;100.00
57232;BME280;43488;46.934;8.276;2023-05-11T07:41:28;96366.13;;;11.74;100.00
57232;BME280;43488;46.934;8.276;2023-05-11T07:43:55;96367.53;;;11.76;100.00
57232;BME280;43488;46.934;8.276;2023-05-11T07:46:22;96374.38;;;11.84;100.00
57232;BME280;43488;46.934;8.276;2023-05-11T07:48:50;96363.59;;;11.85;100.00
57232;BME280;43488;46.934;8.276;2023-05-11T07:51:17;96363.50;;;11.99;100.00
57232;BME280;43488;46.934;8.276;2023-05-11T07:53:44;96371.91;;;11.89;100.00
57232;BME280;43488;46.934;8.276;2023-05-11T07:56:11;96363.59;;;11.85;100.00
57232;BME280;43488;46.934;8.276;2023-05-11T07:58:39;96364.19;;;11.87;100.00
57232;BME280;43488;46.934;8.276;2023-05-11T08:01:06;96363.03;;;11.83;100.00
57232;BME280;43488;46.934;8.276;2023-05-11T08:03:33;96358.13;;;11.87;100.00
57232;BME280;43488;46.934;8.276;2023-05-11T08:06:01;96358.91;;;11.87;100.00
57232;BME280;43488;46.934;8.276;2023-05-11T08:08:28;96365.59;;;11.90;100.00
57232;BME280;43488;46.934;8.276;2023-05-11T08:10:56;96365.59;;;11.90;100.00
57232;BME280;43488;46.934;8.276;2023-05-11T08:13:23;96364.50;;;11.98;100.00
57232;BME280;43488;46.934;8.276;2023-05-11T08:15:51;96363.09;;;11.95;100.00
57232;BME280;43488;46.934;8.276;2023-05-11T08:18:18;96360.19;;;12.03;100.00
57232;BME280;43488;46.934;8.276;2023-05-11T08:20:48;96358.94;;;12.06;100.00
57232;BME280;43488;46.934;8.276;2023-05-11T08:23:15;96361.84;;;11.98;100.00
57232;BME280;43488;46.934;8.276;2023-05-11T08:25:53;96351.63;;;12.08;100.00
57232;BME280;43488;46.934;8.276;2023-05-11T08:28:21;96348.25;;;12.19;100.00
57232;BME280;43488;46.934;8.276;2023-05-11T08:30:56;96347.22;;;12.20;100.00
57232;BME280;43488;46.934;8.276;2023-05-11T08:33:24;96352.47;;;12.20;97.43
57232;BME280;43488;46.934;8.276;2023-05-11T08:35:51;96355.56;;;12.17;95.74
57232;BME280;43488;46.934;8.276;2023-05-11T08:38:19;96362.44;;;12.36;99.64
57232;BME280;43488;46.934;8.276;2023-05-11T08:40:46;96360.09;;;12.28;96.43
57232;BME280;43488;46.934;8.276;2023-05-11T08:43:18;96356.00;;;12.32;96.93
57232;BME280;43488;46.934;8.276;2023-05-11T08:45:45;96352.47;;;12.38;95.97
57232;BME280;43488;46.934;8.276;2023-05-11T08:48:16;96353.03;;;12.40;92.56
57232;BME280;43488;46.934;8.276;2023-05-11T08:50:45;96349.22;;;12.55;94.81
57232;BME280;43488;46.934;8.276;2023-05-11T08:53:13;96346.16;;;12.69;97.52
57232;BME280;43488;46.934;8.276;2023-05-11T08:55:42;96350.22;;;12.72;98.92
57232;BME280;43488;46.934;8.276;2023-05-11T08:58:11;96339.44;;;12.85;95.79
57232;BME280;43488;46.934;8.276;2023-05-11T09:00:41;96343.72;;;12.98;95.17
57232;BME280;43488;46.934;8.276;2023-05-11T09:03:10;96337.31;;;13.05;96.72
57232;BME280;43488;46.934;8.276;2023-05-11T09:05:37;96334.16;;;12.85;97.38
57232;BME280;43488;46.934;8.276;2023-05-11T09:08:07;96336.03;;;12.96;97.73
57232;BME280;43488;46.934;8.276;2023-05-11T09:10:35;96334.56;;;13.00;96.92
57232;BME280;43488;46.934;8.276;2023-05-11T09:13:04;96332.91;;;13.29;97.67
57232;BME280;43488;46.934;8.276;2023-05-11T09:15:32;96329.47;;;13.29;94.04
57232;BME280;43488;46.934;8.276;2023-05-11T09:18:00;96328.34;;;13.36;96.37
57232;BME280;43488;46.934;8.276;2023-05-11T09:20:31;96327.97;;;13.33;99.05
57232;BME280;43488;46.934;8.276;2023-05-11T09:22:59;96328.34;;;13.48;97.04
57232;BME280;43488;46.934;8.276;2023-05-11T09:25:30;96321.56;;;13.64;95.08
57232;BME280;43488;46.934;8.276;2023-05-11T09:27:59;96319.38;;;13.73;93.22
57232;BME280;43488;46.934;8.276;2023-05-11T09:30:27;96315.91;;;13.72;92.25
57232;BME280;43488;46.934;8.276;2023-05-11T09:32:57;96319.13;;;13.74;92.27
57232;BME280;43488;46.934;8.276;2023-05-11T09:38:11;96315.06;;;13.95;91.46
57232;BME280;43488;46.934;8.276;2023-05-11T09:40:50;96307.22;;;14.12;93.68
57232;BME280;43488;46.934;8.276;2023-05-11T09:43:25;96305.88;;;14.38;84.94
57232;BME280;43488;46.934;8.276;2023-05-11T09:45:56;96296.63;;;14.52;82.79
57232;BME280;43488;46.934;8.276;2023-05-11T09:48:27;96299.34;;;14.29;86.15
57232;BME280;43488;46.934;8.276;2023-05-11T09:51:06;96286.63;;;14.54;82.79
57232;BME280;43488;46.934;8.276;2023-05-11T09:53:42;96284.78;;;14.71;83.26
57232;BME280;43488;46.934;8.276;2023-05-11T09:56:12;96284.34;;;14.46;83.66
57232;BME280;43488;46.934;8.276;2023-05-11T09:58:51;96287.41;;;14.43;82.75
57232;BME280;43488;46.934;8.276;2023-05-11T10:01:32;96286.53;;;14.37;77.80
57232;BME280;43488;46.934;8.276;2023-05-11T10:04:01;96281.69;;;14.46;75.12
57232;BME280;43488;46.934;8.276;2023-05-11T10:06:45;96288.41;;;14.65;73.97
57232;BME280;43488;46.934;8.276;2023-05-11T10:09:16;96271.16;;;14.79;73.25
57232;BME280;43488;46.934;8.276;2023-05-11T10:11:45;96280.34;;;14.60;71.11
57232;BME280;43488;46.934;8.276;2023-05-11T10:14:17;96271.56;;;14.88;76.28
57232;BME280;43488;46.934;8.276;2023-05-11T10:16:45;96263.88;;;15.03;78.85
57232;BME280;43488;46.934;8.276;2023-05-11T10:19:14;96265.06;;;14.96;76.35
57232;BME280;43488;46.934;8.276;2023-05-11T10:21:42;96263.59;;;15.39;77.50
57232;BME280;43488;46.934;8.276;2023-05-11T10:24:10;96270.44;;;15.34;76.41
57232;BME280;43488;46.934;8.276;2023-05-11T10:26:37;96263.59;;;15.55;77.21
57232;BME280;43488;46.934;8.276;2023-05-11T10:29:05;96261.34;;;15.64;72.32
57232;BME280;43488;46.934;8.276;2023-05-11T10:31:33;96263.25;;;15.69;75.35
57232;BME280;43488;46.934;8.276;2023-05-11T10:34:01;96263.38;;;15.79;72.37
57232;BME280;43488;46.934;8.276;2023-05-11T10:36:31;96261.19;;;15.92;69.30
57232;BME280;43488;46.934;8.276;2023-05-11T10:38:59;96261.34;;;15.64;68.21
57232;BME280;43488;46.934;8.276;2023-05-11T11:00:19;96260.56;;;14.22;79.19
57232;BME280;43488;46.934;8.276;2023-05-11T11:02:57;96263.31;;;14.28;80.54
57232;BME280;43488;46.934;8.276;2023-05-11T11:05:35;96272.69;;;14.18;84.71
57232;BME280;43488;46.934;8.276;2023-05-11T11:08:05;96264.88;;;14.12;87.64
57232;BME280;43488;46.934;8.276;2023-05-11T11:10:40;96264.44;;;14.32;89.50
57232;BME280;43488;46.934;8.276;2023-05-11T11:13:17;96259.66;;;14.17;86.44
57232;BME280;43488;46.934;8.276;2023-05-11T11:18:30;96260.69;;;14.16;90.47
57232;BME280;43488;46.934;8.276;2023-05-11T11:21:00;96254.03;;;14.13;90.88
57232;BME280;43488;46.934;8.276;2023-05-11T11:23:48;96256.69;;;14.13;90.43
57232;BME280;43488;46.934;8.276;2023-05-11T11:26:49;96264.47;;;13.91;87.94
57232;BME280;43488;46.934;8.276;2023-05-11T11:29:17;96251.06;;;14.10;87.00
57232;BME280;43488;46.934;8.276;2023-05-11T11:31:44;96248.09;;;13.94;90.14
57232;BME280;43488;46.934;8.276;2023-05-11T11:34:37;96244.28;;;14.02;87.01
57232;BME280;43488;46.934;8.276;2023-05-11T11:37:05;96251.06;;;13.98;86.19
57232;BME280;43488;46.934;8.276;2023-05-11T11:42:13;96243.94;;;14.39;87.67
57232;BME280;43488;46.934;8.276;2023-05-11T11:44:42;96234.28;;;14.61;85.62
57232;BME280;43488;46.934;8.276;2023-05-11T11:47:20;96233.41;;;14.56;83.66
57232;BME280;43488;46.934;8.276;2023-05-11T11:49:53;96226.69;;;14.82;81.58
57232;BME280;43488;46.934;8.276;2023-05-11T11:54:59;96226.03;;;14.91;80.28
57232;BME280;43488;46.934;8.276;2023-05-11T12:00:07;96225.16;;;15.02;75.83
57232;BME280;43488;46.934;8.276;2023-05-11T12:02:42;96223.78;;;14.83;77.02
57232;BME280;43488;46.934;8.276;2023-05-11T12:05:12;96225.84;;;14.81;79.40
57232;BME280;43488;46.934;8.276;2023-05-11T12:07:46;96225.63;;;14.83;76.07
57232;BME280;43488;46.934;8.276;2023-05-11T12:10:17;96221.13;;;14.83;76.00
57232;BME280;43488;46.934;8.276;2023-05-11T12:12:47;96220.38;;;14.71;76.81
57232;BME280;43488;46.934;8.276;2023-05-11T12:15:30;96226.75;;;14.87;78.04
57232;BME280;43488;46.934;8.276;2023-05-11T12:18:00;96224.09;;;14.87;76.42
57232;BME280;43488;46.934;8.276;2023-05-11T12:20:29;96228.28;;;14.83;75.74
57232;BME280;43488;46.934;8.276;2023-05-11T12:22:56;96221.75;;;14.90;78.12
57232;BME280;43488;46.934;8.276;2023-05-11T12:25:31;96223.59;;;14.90;76.88
57232;BME280;43488;46.934;8.276;2023-05-11T12:27:58;96216.47;;;14.90;75.55
57232;BME280;43488;46.934;8.276;2023-05-11T12:30:30;96220.34;;;14.83;74.36
57232;BME280;43488;46.934;8.276;2023-05-11T12:33:00;96215.91;;;14.71;77.57
57232;BME280;43488;46.934;8.276;2023-05-11T12:35:33;96213.66;;;14.63;80.04
57232;BME280;43488;46.934;8.276;2023-05-11T12:38:01;96215.34;;;14.69;80.02
57232;BME280;43488;46.934;8.276;2023-05-11T12:40:30;96210.13;;;14.58;80.78
57232;BME280;43488;46.934;8.276;2023-05-11T12:42:59;96209.81;;;14.54;80.17
57232;BME280;43488;46.934;8.276;2023-05-11T12:45:28;96214.13;;;14.60;78.02
57232;BME280;43488;46.934;8.276;2023-05-11T12:47:56;96214.75;;;14.50;79.83
57232;BME280;43488;46.934;8.276;2023-05-11T12:50:24;96214.00;;;14.38;76.57
57232;BME280;43488;46.934;8.276;2023-05-11T12:52:51;96212.75;;;14.58;77.88
57232;BME280;43488;46.934;8.276;2023-05-11T12:55:27;96204.72;;;14.52;74.77
57232;BME280;43488;46.934;8.276;2023-05-11T12:58:15;96202.03;;;14.64;75.60
57232;BME280;43488;46.934;8.276;2023-05-11T13:00:55;96202.59;;;14.66;75.01
57232;BME280;43488;46.934;8.276;2023-05-11T13:03:28;96193.41;;;14.57;73.12
57232;BME280;43488;46.934;8.276;2023-05-11T13:06:10;96193.00;;;14.48;70.50
57232;BME280;43488;46.934;8.276;2023-05-11T13:08:47;96190.59;;;14.47;71.70
57232;BME280;43488;46.934;8.276;2023-05-11T13:11:24;96191.66;;;14.46;72.02
57232;BME280;43488;46.934;8.276;2023-05-11T13:13:55;96187.75;;;14.37;72.16
57232;BME280;43488;46.934;8.276;2023-05-11T13:16:31;96190.22;;;14.27;74.33
57232;BME280;43488;46.934;8.276;2023-05-11T13:19:05;96192.38;;;14.30;75.78
57232;BME280;43488;46.934;8.276;2023-05-11T13:21:35;96190.97;;;14.39;74.69
57232;BME280;43488;46.934;8.276;2023-05-11T13:24:03;96181.66;;;14.36;73.93
57232;BME280;43488;46.934;8.276;2023-05-11T13:26:31;96192.00;;;14.38;73.67
57232;BME280;43488;46.934;8.276;2023-05-11T13:28:58;96188.63;;;14.54;79.83
57232;BME280;43488;46.934;8.276;2023-05-11T13:31:26;96177.53;;;14.57;79.48
57232;BME280;43488;46.934;8.276;2023-05-11T13:33:53;96180.44;;;14.72;81.67
57232;BME280;43488;46.934;8.276;2023-05-11T13:36:21;96181.53;;;14.76;81.02
57232;BME280;43488;46.934;8.276;2023-05-11T13:38:50;96178.63;;;14.61;79.16
57232;BME280;43488;46.934;8.276;2023-05-11T13:41:18;96188.38;;;14.72;79.29
57232;BME280;43488;46.934;8.276;2023-05-11T13:43:45;96171.66;;;14.72;80.44